Terminal Aerodrome Forecast
Issued by NWS

Home | Current Version | Previous Version | Text Only | Print | Product List | Glossary On
Versions: 1 2 3 4 5 6 7 8 9 10 11 12 13 14 15 16 17 18 19 20 21 22 23 24 25 26
000
FTUS43 KLSX 192107 AAA
TAFCPS
TAF AMD
KCPS 192107Z 1921/2018 17015G25KT P6SM VCTS BKN035CB
      TEMPO 1921/1924 3SM SHRA OVC025
     FM200000 18015G25KT P6SM VCSH OVC030
     FM200400 18015G24KT 4SM -SHRA OVC020
     FM201500 19017G27KT 5SM -SHRA OVC015=

USA.gov is the U.S. government's official web portal to all federal, state and local government web resources and services.